createdAt,value
2022-08-03T00:01:28.076Z,2.35
2022-08-03T00:03:54.605Z,1.70
2022-08-03T00:06:20.962Z,2.10
2022-08-03T00:08:47.304Z,2.28
2022-08-03T00:11:13.636Z,1.90
2022-08-03T00:13:39.967Z,1.90
2022-08-03T00:16:06.250Z,1.95
2022-08-03T00:18:32.632Z,1.73
2022-08-03T00:20:58.966Z,1.80
2022-08-03T00:23:25.295Z,1.65
2022-08-03T00:25:51.711Z,2.00
2022-08-03T00:28:18.104Z,1.90
2022-08-03T00:30:44.888Z,2.53
2022-08-03T00:33:11.262Z,2.00
2022-08-03T00:35:47.983Z,1.95
2022-08-03T00:38:17.584Z,1.90
2022-08-03T00:40:43.893Z,1.90
2022-08-03T00:43:10.814Z,2.20
2022-08-03T00:45:38.957Z,1.85
2022-08-03T00:48:06.234Z,2.40
2022-08-03T00:50:49.712Z,2.78
2022-08-03T00:53:20.432Z,2.22
2022-08-03T00:55:46.731Z,2.95
2022-08-03T00:58:13.996Z,2.42
2022-08-03T01:00:40.634Z,2.53
2022-08-03T01:03:07.972Z,2.38
2022-08-03T01:05:54.559Z,2.30
2022-08-03T01:08:39.532Z,2.70
2022-08-03T01:11:05.858Z,2.28
2022-08-03T01:14:03.410Z,2.60
2022-08-03T01:16:59.167Z,2.37
2022-08-03T01:19:35.710Z,2.78
2022-08-03T01:22:08.095Z,3.00
2022-08-03T01:24:43.946Z,3.13
2022-08-03T01:27:17.873Z,2.80
2022-08-03T01:29:53.338Z,2.90
2022-08-03T01:32:58.488Z,3.30
2022-08-03T01:35:22.214Z,3.03
2022-08-03T01:37:55.792Z,2.95
2022-08-03T01:40:22.207Z,3.00
2022-08-03T01:42:49.542Z,3.22
2022-08-03T01:45:18.608Z,2.80
2022-08-03T01:47:45.605Z,3.38
2022-08-03T01:50:13.255Z,2.85
2022-08-03T01:52:41.312Z,2.75
2022-08-03T01:55:08.905Z,2.72
2022-08-03T01:58:06.126Z,3.28
2022-08-03T02:00:23.751Z,2.30
2022-08-03T02:02:50.671Z,3.50
2022-08-03T02:05:18.803Z,3.58
2022-08-03T02:07:46.275Z,3.28
2022-08-03T02:10:13.636Z,3.53
2022-08-03T02:12:40.007Z,3.65
2022-08-03T02:15:07.286Z,3.55
2022-08-03T02:17:39.319Z,3.95
2022-08-03T02:20:07.173Z,3.08
2022-08-03T02:22:33.769Z,3.30
2022-08-03T02:25:00.083Z,2.63
2022-08-03T02:27:27.490Z,2.90
2022-08-03T02:29:56.338Z,3.50
2022-08-03T02:32:29.361Z,3.45
2022-08-03T02:34:56.095Z,3.38
2022-08-03T02:37:25.752Z,3.00
2022-08-03T02:39:53.366Z,3.63
2022-08-03T02:42:21.492Z,3.03
2022-08-03T02:44:49.449Z,3.70
2022-08-03T02:47:17.114Z,3.67
2022-08-03T02:49:51.331Z,3.65
2022-08-03T02:52:19.828Z,2.97
2022-08-03T02:54:46.527Z,3.90
2022-08-03T02:57:13.838Z,3.72
2022-08-03T02:59:40.811Z,3.70
2022-08-03T03:02:07.220Z,3.60
2022-08-03T03:04:33.886Z,3.65
2022-08-03T03:07:01.771Z,3.13
2022-08-03T03:09:41.593Z,4.45
2022-08-03T03:12:10.488Z,4.25
2022-08-03T03:14:37.420Z,4.13
2022-08-03T03:17:04.449Z,3.85
2022-08-03T03:19:30.927Z,4.35
2022-08-03T03:21:58.818Z,3.35
2022-08-03T03:24:25.367Z,3.83
2022-08-03T03:26:52.023Z,3.70
2022-08-03T03:29:18.858Z,3.50
2022-08-03T03:31:45.441Z,3.63
2022-08-03T03:34:12.121Z,3.88
2022-08-03T03:36:39.011Z,4.15
2022-08-03T03:39:15.254Z,4.28
2022-08-03T03:41:42.575Z,3.58
2022-08-03T03:44:08.911Z,4.28
2022-08-03T03:46:35.405Z,4.45
2022-08-03T03:49:01.897Z,3.67
2022-08-03T03:51:28.281Z,3.75
2022-08-03T03:53:59.012Z,3.65
2022-08-03T03:56:25.667Z,4.28
2022-08-03T03:58:52.404Z,4.07
2022-08-03T04:01:19.280Z,4.38
2022-08-03T04:03:45.661Z,3.83
2022-08-03T04:06:30.977Z,3.88
2022-08-03T04:09:16.272Z,3.78
2022-08-03T04:11:49.329Z,3.97
2022-08-03T04:14:26.775Z,3.67
2022-08-03T04:17:01.649Z,4.18
2022-08-03T04:19:34.130Z,3.40
2022-08-03T04:22:02.571Z,3.15
2022-08-03T04:24:32.827Z,3.30
2022-08-03T04:27:00.676Z,4.13
2022-08-03T04:29:28.982Z,4.47
2022-08-03T19:59:18.305Z,2.20
2022-08-03T20:01:50.696Z,1.60
2022-08-03T20:04:17.646Z,1.98
2022-08-03T20:06:47.620Z,1.70
2022-08-03T20:09:16.401Z,1.70
2022-08-03T20:11:43.647Z,1.90
2022-08-03T20:14:20.842Z,2.65
2022-08-03T20:16:53.443Z,1.95
2022-08-03T20:19:20.005Z,1.75
2022-08-03T20:21:48.310Z,2.10
2022-08-03T20:24:23.736Z,2.20
2022-08-03T20:26:55.589Z,2.80
2022-08-03T20:30:04.938Z,2.63
2022-08-03T20:32:14.400Z,2.42
2022-08-03T20:34:40.989Z,2.50
2022-08-03T20:37:07.436Z,2.50
2022-08-03T20:39:41.328Z,2.55
2022-08-03T20:42:21.064Z,2.95
2022-08-03T20:44:47.647Z,2.92
2022-08-03T20:47:35.717Z,3.00
2022-08-03T20:50:02.666Z,2.45
2022-08-03T20:52:31.165Z,2.70
2022-08-03T20:54:58.607Z,2.97
2022-08-03T20:57:28.503Z,3.13
2022-08-03T21:00:09.430Z,2.75
2022-08-03T21:02:39.213Z,2.58
2022-08-03T21:05:08.627Z,2.63
2022-08-03T21:08:05.584Z,2.22
2022-08-03T21:10:37.809Z,2.38
2022-08-03T21:16:12.012Z,3.05
2022-08-03T21:18:35.333Z,3.13
2022-08-03T21:23:39.993Z,2.85
2022-08-03T21:26:16.261Z,2.60
2022-08-03T21:28:42.803Z,2.85
2022-08-03T21:31:09.182Z,2.42
2022-08-03T21:33:37.734Z,2.60
2022-08-03T21:38:34.394Z,2.47
2022-08-03T21:41:01.396Z,2.55
2022-08-03T21:43:27.697Z,2.75
2022-08-03T21:46:00.871Z,3.00
2022-08-03T21:48:27.939Z,2.83
2022-08-03T21:50:54.493Z,2.70
2022-08-03T21:53:23.201Z,2.90
2022-08-03T21:55:54.985Z,3.08
2022-08-03T21:58:29.227Z,2.83
2022-08-03T22:00:56.956Z,2.55
2022-08-03T22:03:24.599Z,2.90
2022-08-03T22:05:51.485Z,3.00
2022-08-03T22:08:18.012Z,2.85
2022-08-03T22:10:44.713Z,3.22
2022-08-03T22:13:14.986Z,4.95
2022-08-03T22:15:41.519Z,4.70
2022-08-03T22:18:07.892Z,5.20
2022-08-03T22:20:34.305Z,5.88
2022-08-03T22:23:01.932Z,5.40
2022-08-03T22:25:29.648Z,4.97
2022-08-03T22:27:57.015Z,4.90
2022-08-03T22:30:23.347Z,4.45
2022-08-03T22:32:51.601Z,4.50
2022-08-03T22:35:18.153Z,4.00
2022-08-03T22:37:45.387Z,4.13
2022-08-03T22:40:13.574Z,4.50
2022-08-03T22:42:40.640Z,4.47
2022-08-03T22:45:07.488Z,4.65
2022-08-03T22:47:38.314Z,4.55
2022-08-03T22:50:32.755Z,4.23
2022-08-03T22:52:53.465Z,4.03
2022-08-03T22:55:25.052Z,3.70
2022-08-03T23:00:22.566Z,3.63
2022-08-03T23:02:49.392Z,3.53
2022-08-03T23:06:02.508Z,4.75
2022-08-03T23:08:14.407Z,3.92
2022-08-03T23:10:46.547Z,3.67
2022-08-03T23:13:14.468Z,3.58
2022-08-03T23:15:40.963Z,3.58
2022-08-03T23:18:07.578Z,3.70
2022-08-03T23:20:34.193Z,3.65
2022-08-03T23:23:00.921Z,4.10
2022-08-03T23:25:27.292Z,3.90
2022-08-03T23:28:05.593Z,4.10
2022-08-03T23:30:33.674Z,3.83
2022-08-03T23:33:01.090Z,4.35
2022-08-03T23:36:27.628Z,4.95
2022-08-03T23:38:35.864Z,3.67
2022-08-03T23:41:03.172Z,3.38
2022-08-03T23:43:45.041Z,3.75
2022-08-03T23:46:18.340Z,3.90
2022-08-03T23:48:44.766Z,3.47
2022-08-03T23:51:17.154Z,3.30
2022-08-03T23:54:02.145Z,3.60
2022-08-03T23:56:28.691Z,3.22
2022-08-03T23:59:11.657Z,2.97
